Time;durP1;ratioP1;P1;durP2;ratioP2;P2;SDS_P1;SDS_P2;PMS_P1;PMS_P2;Temp;Humidity;BMP_temperature;BMP_pressure;BME280_temperature;BME280_humidity;BME280_pressure;Samples;Min_cycle;Max_cycle;Signal;HPM_P1;HPM_P2
2023/03/10 00:00:44;;;;;;;6.93;4.65;;;;;;;3.49;71.18;99043.06;4974808;28;20050;-75
2023/03/10 00:03:10;;;;;;;7.30;4.80;;;;;;;3.54;71.35;99052.44;4974488;28;20098;-74
2023/03/10 00:05:37;;;;;;;6.63;4.60;;;;;;;3.55;70.83;99048.88;4974499;28;20038;-75
2023/03/10 00:08:04;;;;;;;5.57;4.53;;;;;;;3.60;71.30;99045.94;4990988;28;20078;-75
2023/03/10 00:10:30;;;;;;;8.00;4.85;;;;;;;3.63;71.00;99043.16;4958532;28;20077;-74
2023/03/10 00:12:56;;;;;;;8.50;5.20;;;;;;;3.68;70.94;99032.31;4975707;28;20047;-75
2023/03/10 00:15:22;;;;;;;9.13;4.45;;;;;;;3.65;70.79;99026.28;4958259;28;20049;-75
2023/03/10 00:17:54;;;;;;;7.80;5.30;;;;;;;3.62;71.05;99034.38;4974341;28;20042;-74
2023/03/10 00:20:21;;;;;;;8.52;5.22;;;;;;;3.69;70.84;99036.69;4941780;28;20047;-74
2023/03/10 00:22:47;;;;;;;8.65;4.90;;;;;;;3.72;70.73;99033.84;4974220;28;20047;-75
2023/03/10 00:25:14;;;;;;;13.35;4.85;;;;;;;3.79;70.61;99035.19;4975428;28;20051;-75
2023/03/10 00:27:40;;;;;;;7.97;5.15;;;;;;;3.78;70.45;99038.78;4974058;28;20066;-74
2023/03/10 00:30:07;;;;;;;7.97;5.38;;;;;;;3.72;70.80;99039.13;4974090;28;20046;-75
2023/03/10 00:32:34;;;;;;;8.68;5.60;;;;;;;3.74;70.42;99031.97;4975221;28;20039;-76
2023/03/10 00:35:01;;;;;;;7.50;5.53;;;;;;;3.75;70.48;99028.38;4942053;28;20043;-75
2023/03/10 00:37:28;;;;;;;9.10;5.72;;;;;;;3.74;71.08;99031.97;4975085;28;20055;-76
2023/03/10 00:39:54;;;;;;;8.07;6.03;;;;;;;3.81;70.94;99028.03;4973896;28;20043;-75
2023/03/10 00:42:20;;;;;;;6.55;5.53;;;;;;;3.77;70.69;99018.56;4974951;28;20414;-74
2023/03/10 00:44:46;;;;;;;9.85;5.97;;;;;;;3.84;70.64;99010.19;4957426;28;20039;-76
2023/03/10 00:47:12;;;;;;;9.02;5.65;;;;;;;3.86;70.42;99010.94;4974927;28;20042;-76
2023/03/10 00:49:37;;;;;;;8.52;5.70;;;;;;;3.92;70.16;99014.19;4975138;28;20383;-75
2023/03/10 00:52:04;;;;;;;8.57;5.43;;;;;;;3.93;70.55;99007.97;4974927;28;20047;-74
2023/03/10 00:54:29;;;;;;;7.43;5.03;;;;;;;3.72;70.47;99012.69;4957239;28;20097;-75
2023/03/10 00:56:55;;;;;;;7.68;5.55;;;;;;;3.61;71.14;98995.66;4973481;28;20034;-75
2023/03/10 00:59:21;;;;;;;7.80;5.40;;;;;;;3.63;70.92;99009.63;4957568;28;20494;-75
2023/03/10 01:01:47;;;;;;;6.85;4.97;;;;;;;3.69;70.63;98999.66;4973337;28;20133;-74
2023/03/10 01:04:15;;;;;;;9.13;5.68;;;;;;;3.67;71.12;98993.59;4989978;28;20057;-75
2023/03/10 01:06:43;;;;;;;10.15;5.60;;;;;;;3.64;70.90;99000.75;4974739;28;20467;-74
2023/03/10 01:09:09;;;;;;;10.52;6.07;;;;;;;3.65;71.48;99006.91;4973201;28;20097;-74
2023/03/10 01:11:35;;;;;;;10.52;6.72;;;;;;;3.72;71.14;99005.59;4974196;28;20043;-75
2023/03/10 01:14:03;;;;;;;13.82;7.32;;;;;;;3.64;71.39;99003.41;4974434;28;20125;-75
2023/03/10 01:16:29;;;;;;;13.98;7.10;;;;;;;3.67;71.13;99004.19;4973314;28;20083;-75
2023/03/10 01:18:56;;;;;;;13.02;7.18;;;;;;;3.60;71.91;99004.50;4973283;28;20077;-75
2023/03/10 01:21:28;;;;;;;9.00;6.10;;;;;;;3.67;71.49;99004.19;4973131;28;20082;-75
2023/03/10 01:23:54;;;;;;;8.88;6.50;;;;;;;3.67;71.56;98989.16;4957120;28;20042;-75
2023/03/10 01:26:20;;;;;;;8.65;5.90;;;;;;;3.65;71.39;98970.75;4957231;28;20134;-76
2023/03/10 01:28:47;;;;;;;8.30;5.90;;;;;;;3.63;71.56;98962.06;4972872;28;20051;-76
2023/03/10 01:31:13;;;;;;;9.82;5.65;;;;;;;3.63;71.43;98974.44;4940981;28;20050;-75
2023/03/10 01:33:41;;;;;;;8.75;5.85;;;;;;;3.54;71.76;98951.19;4973176;28;20081;-75
2023/03/10 01:36:09;;;;;;;9.75;5.38;;;;;;;3.60;71.90;98956.94;4972890;28;20482;-76
2023/03/10 01:38:36;;;;;;;10.45;5.40;;;;;;;3.57;71.94;98957.16;4974184;28;20047;-76
2023/03/10 01:41:03;;;;;;;9.50;5.40;;;;;;;3.61;71.93;98947.22;4974136;28;20043;-77
2023/03/10 01:43:30;;;;;;;8.68;5.10;;;;;;;3.54;71.77;98944.09;4973925;28;20055;-76
2023/03/10 01:45:56;;;;;;;7.63;5.30;;;;;;;3.53;71.99;98950.31;4956708;28;20042;-76
2023/03/10 01:48:23;;;;;;;7.70;4.78;;;;;;;3.39;72.41;98939.69;4956684;28;20126;-75
2023/03/10 01:50:54;;;;;;;9.88;6.38;;;;;;;3.40;72.26;98949.31;4974011;28;20520;-75
2023/03/10 01:53:21;;;;;;;7.80;5.03;;;;;;;3.45;72.63;98931.41;4972810;28;20050;-75
2023/03/10 01:55:51;;;;;;;8.15;5.60;;;;;;;3.52;72.34;98948.59;4972695;28;20230;-76
2023/03/10 01:58:21;;;;;;;8.27;5.28;;;;;;;3.41;72.64;98941.28;4973171;28;20046;-76
2023/03/10 02:00:51;;;;;;;9.55;5.60;;;;;;;3.48;72.59;98939.16;4956489;28;20082;-75
2023/03/10 02:03:25;;;;;;;6.18;5.45;;;;;;;3.53;72.28;98950.31;4956734;28;20129;-76
2023/03/10 02:06:01;;;;;;;7.50;5.03;;;;;;;3.60;72.12;98945.53;4943006;28;20073;-75
2023/03/10 02:08:32;;;;;;;10.20;5.78;;;;;;;3.67;72.00;98949.50;4960530;28;20548;-74
2023/03/10 02:11:00;;;;;;;7.82;5.70;;;;;;;3.71;71.45;98953.69;4960374;28;20039;-76
2023/03/10 02:13:26;;;;;;;8.07;5.28;;;;;;;3.72;71.65;98975.69;4976454;28;20078;-75
2023/03/10 02:15:52;;;;;;;7.38;5.65;;;;;;;3.73;71.66;98966.81;4960720;28;20089;-77
2023/03/10 02:18:21;;;;;;;7.82;5.80;;;;;;;3.75;71.76;98965.78;4977419;28;20581;-76
2023/03/10 02:20:59;;;;;;;8.43;5.43;;;;;;;3.77;71.28;98957.78;4975607;28;20465;-75
2023/03/10 02:23:29;;;;;;;8.07;5.63;;;;;;;3.84;71.38;98975.84;4960471;28;20042;-76
2023/03/10 02:26:19;;;;;;;7.28;5.20;;;;;;;3.84;71.56;98951.19;4992380;28;20054;-76
2023/03/10 02:28:47;;;;;;;8.45;5.63;;;;;;;3.89;71.03;98951.75;4969632;28;20056;-75
2023/03/10 02:31:14;;;;;;;12.25;6.38;;;;;;;3.83;70.96;98947.66;4992355;28;20053;-75
2023/03/10 02:33:43;;;;;;;10.52;5.70;;;;;;;3.84;71.24;98948.56;4976390;28;20510;-76
2023/03/10 02:36:12;;;;;;;9.60;6.17;;;;;;;3.92;71.69;98962.16;4960266;28;20054;-76
2023/03/10 02:38:38;;;;;;;10.93;6.10;;;;;;;3.91;71.22;98963.09;4975820;28;20285;-75
2023/03/10 02:41:18;;;;;;;8.73;6.40;;;;;;;3.82;71.52;98972.41;4975980;28;20039;-76
2023/03/10 02:43:46;;;;;;;14.50;7.00;;;;;;;3.90;71.62;98969.31;4991739;28;20502;-76
2023/03/10 02:46:19;;;;;;;12.15;6.80;;;;;;;3.95;71.14;98962.00;4975838;28;20046;-75
2023/03/10 02:48:46;;;;;;;13.32;6.93;;;;;;;4.06;71.27;98972.78;4970244;28;20051;-77
2023/03/10 02:51:25;;;;;;;15.70;6.93;;;;;;;4.07;71.42;98966.53;4947660;28;20054;-76
2023/03/10 02:53:53;;;;;;;13.90;6.15;;;;;;;4.14;70.97;98967.03;4939439;28;20051;-75
2023/03/10 02:56:19;;;;;;;11.90;6.82;;;;;;;4.16;70.95;98964.28;4959423;28;20061;-75
2023/03/10 02:58:45;;;;;;;11.32;7.53;;;;;;;4.14;71.21;98962.59;4975896;28;20038;-76
2023/03/10 03:01:11;;;;;;;12.52;7.20;;;;;;;4.19;70.89;98964.09;4959304;28;20066;-76
2023/03/10 03:03:39;;;;;;;9.30;6.57;;;;;;;4.13;70.91;98954.72;4975676;28;20047;-75
2023/03/10 03:06:07;;;;;;;13.57;8.15;;;;;;;4.14;70.81;98954.66;4975578;28;20047;-75
2023/03/10 03:08:33;;;;;;;12.48;7.00;;;;;;;4.24;70.81;98960.22;4976052;28;20042;-75
2023/03/10 03:11:00;;;;;;;12.05;6.82;;;;;;;4.26;70.80;98955.72;4975189;28;20098;-74
2023/03/10 03:13:28;;;;;;;13.20;7.40;;;;;;;4.29;70.89;98959.97;4977121;28;20139;-77
2023/03/10 03:15:54;;;;;;;15.80;7.50;;;;;;;4.28;70.45;98960.91;4976150;28;20133;-78
2023/03/10 03:18:20;;;;;;;13.18;7.93;;;;;;;4.21;70.85;98955.13;4942599;28;20043;-77
2023/03/10 03:20:47;;;;;;;12.50;7.97;;;;;;;4.26;70.76;98955.72;4975391;28;20054;-76
2023/03/10 03:23:13;;;;;;;10.65;7.05;;;;;;;4.28;70.50;98963.53;4972764;28;20103;-77
2023/03/10 03:25:40;;;;;;;11.63;7.07;;;;;;;4.31;70.58;98958.06;4975177;28;20043;-77
2023/03/10 03:28:10;;;;;;;13.55;7.30;;;;;;;4.26;70.19;98949.56;4991534;28;20573;-76
2023/03/10 03:30:37;;;;;;;10.50;7.13;;;;;;;4.12;70.83;98958.31;4975303;28;20038;-75
2023/03/10 03:33:04;;;;;;;11.63;7.43;;;;;;;4.23;70.91;98958.53;4975254;28;20410;-75
2023/03/10 03:35:34;;;;;;;13.55;7.65;;;;;;;4.33;70.67;98972.06;4958940;28;20058;-76
2023/03/10 03:38:01;;;;;;;26.17;9.95;;;;;;;4.37;70.02;98968.28;4975050;28;20050;-75
2023/03/10 03:40:29;;;;;;;14.95;7.68;;;;;;;4.37;70.16;98952.41;4991158;28;20512;-75
2023/03/10 03:42:55;;;;;;;15.70;8.02;;;;;;;4.34;70.18;98971.13;4958610;28;20138;-76
2023/03/10 03:45:24;;;;;;;22.02;8.70;;;;;;;4.34;70.53;98974.63;4942816;28;20043;-76
2023/03/10 03:47:53;;;;;;;37.67;11.20;;;;;;;4.44;70.41;98972.28;4958986;28;20453;-76
2023/03/10 03:50:20;;;;;;;14.45;8.70;;;;;;;4.47;70.14;98964.13;4974721;28;20054;-78
2023/03/10 03:52:46;;;;;;;12.43;6.65;;;;;;;4.63;70.04;98964.91;4974545;28;20050;-75
2023/03/10 03:55:16;;;;;;;14.85;8.40;;;;;;;4.70;69.47;98962.72;4974591;28;20048;-76
2023/03/10 03:57:44;;;;;;;15.32;9.05;;;;;;;4.90;69.53;98965.94;4991321;28;20050;-77
2023/03/10 04:00:16;;;;;;;14.02;8.10;;;;;;;5.04;68.71;98971.19;4958547;28;20042;-76
2023/03/10 04:02:45;;;;;;;16.92;9.15;;;;;;;5.15;68.38;98963.41;4974267;28;20494;-76
2023/03/10 04:05:11;;;;;;;16.05;9.07;;;;;;;5.16;67.91;98972.22;4973630;28;20045;-75
2023/03/10 04:07:38;;;;;;;21.70;9.57;;;;;;;5.28;68.10;98974.94;4958503;28;20039;-76
2023/03/10 04:10:08;;;;;;;15.80;9.27;;;;;;;5.31;67.63;98966.78;4974347;28;20058;-75
2023/03/10 04:12:34;;;;;;;13.35;7.78;;;;;;;5.40;67.96;98962.69;4958221;28;20046;-75
2023/03/10 04:15:01;;;;;;;11.98;7.22;;;;;;;5.38;67.32;98954.00;4974501;28;20106;-78
2023/03/10 04:17:27;;;;;;;11.00;7.10;;;;;;;5.53;67.67;98960.94;4974372;28;20544;-78
2023/03/10 04:19:53;;;;;;;11.77;6.63;;;;;;;5.71;66.74;98973.94;4975291;28;20054;-76
2023/03/10 04:22:18;;;;;;;9.23;6.22;;;;;;;5.64;66.24;98972.63;4974439;28;20502;-75
2023/03/10 04:24:46;;;;;;;11.30;6.30;;;;;;;5.66;66.42;98970.75;4957812;28;20558;-76
2023/03/10 04:27:15;;;;;;;13.45;6.45;;;;;;;5.65;65.90;98961.09;4973950;28;20050;-77
2023/03/10 04:29:41;;;;;;;13.98;6.43;;;;;;;5.58;65.91;98958.84;4990076;28;20133;-76
2023/03/10 04:32:08;;;;;;;17.95;6.10;;;;;;;5.30;66.39;98964.22;4957941;28;20554;-76
2023/03/10 04:34:38;;;;;;;8.95;5.25;;;;;;;5.16;66.69;98966.94;4990437;28;20049;-76
2023/03/10 04:37:04;;;;;;;10.05;6.00;;;;;;;5.32;67.22;98967.63;4956349;28;20493;-77
2023/03/10 04:39:31;;;;;;;16.02;6.00;;;;;;;5.21;66.79;98959.53;4957333;28;20353;-77
2023/03/10 04:41:57;;;;;;;10.05;5.93;;;;;;;5.25;67.01;98967.19;4957885;28;20131;-76
2023/03/10 04:44:23;;;;;;;8.75;6.85;;;;;;;5.31;67.49;98961.50;4927540;29;20084;-76
2023/03/10 04:46:50;;;;;;;18.80;6.70;;;;;;;5.57;66.82;98964.25;4970614;28;20062;-75
2023/03/10 04:49:16;;;;;;;16.00;7.43;;;;;;;5.59;66.43;98954.38;4954628;28;20122;-76
2023/03/10 04:51:53;;;;;;;10.10;6.55;;;;;;;5.55;66.24;98953.72;4954951;28;20062;-76
2023/03/10 04:54:20;;;;;;;10.73;6.60;;;;;;;5.77;65.79;98957.63;4954977;28;20138;-75
2023/03/10 04:56:45;;;;;;;11.55;6.40;;;;;;;5.66;65.17;98952.19;4971168;28;20129;-75
2023/03/10 04:59:11;;;;;;;9.23;6.35;;;;;;;5.69;65.78;98954.63;4954956;28;20038;-77
2023/03/10 05:01:38;;;;;;;9.65;6.50;;;;;;;5.71;65.52;98936.81;4956509;28;20058;-76
2023/03/10 05:04:05;;;;;;;12.60;5.75;;;;;;;5.79;65.16;98955.69;4942007;28;20555;-74
2023/03/10 05:06:32;;;;;;;10.75;6.22;;;;;;;5.84;65.05;98949.16;4975662;28;20077;-75
2023/03/10 05:09:16;;;;;;;7.28;5.40;;;;;;;6.05;64.59;98962.78;4959767;28;20046;-76
2023/03/10 05:11:43;;;;;;;10.95;6.25;;;;;;;6.10;64.41;98935.13;4959604;28;20049;-77
2023/03/10 05:14:10;;;;;;;9.38;6.97;;;;;;;5.93;63.87;98931.78;4959364;28;20066;-76
2023/03/10 05:16:36;;;;;;;12.63;5.93;;;;;;;6.03;63.79;98932.88;4959089;28;20077;-76
2023/03/10 05:19:02;;;;;;;15.90;6.60;;;;;;;6.07;64.24;98936.19;4959012;28;20460;-75
2023/03/10 05:21:30;;;;;;;11.82;6.35;;;;;;;6.07;63.52;98926.41;4975306;28;20467;-75
2023/03/10 05:23:57;;;;;;;10.82;6.50;;;;;;;6.14;63.36;98923.34;4975290;28;20053;-76
2023/03/10 05:26:24;;;;;;;6.55;4.82;;;;;;;5.98;63.63;98919.09;4975397;28;20062;-76
2023/03/10 05:28:50;;;;;;;8.88;6.25;;;;;;;6.14;63.96;98918.03;4959158;28;20402;-77
2023/03/10 05:31:25;;;;;;;8.38;5.70;;;;;;;6.43;62.68;98940.78;4959974;28;20074;-75
2023/03/10 05:33:54;;;;;;;11.85;6.38;;;;;;;6.45;62.65;98938.84;4959692;28;20461;-76
2023/03/10 05:36:21;;;;;;;8.80;6.13;;;;;;;6.39;62.66;98936.59;4975367;28;20452;-75
2023/03/10 05:38:48;;;;;;;7.35;5.88;;;;;;;6.29;62.86;98932.91;4955980;28;20058;-77
2023/03/10 05:41:15;;;;;;;9.07;6.10;;;;;;;6.32;62.68;98944.16;4956063;28;20046;-77
2023/03/10 05:43:43;;;;;;;10.43;6.70;;;;;;;6.33;62.84;98935.25;4972757;28;20521;-75
2023/03/10 05:46:11;;;;;;;9.07;6.40;;;;;;;6.54;62.53;98945.31;4972637;28;20097;-76
2023/03/10 05:48:43;;;;;;;10.70;7.13;;;;;;;6.59;62.26;98939.69;4972676;28;20042;-75
2023/03/10 05:51:11;;;;;;;11.85;7.20;;;;;;;6.70;61.48;98931.81;4972732;28;20051;-76
2023/03/10 05:53:38;;;;;;;15.32;6.57;;;;;;;6.74;61.65;98922.69;4956257;28;20065;-75
2023/03/10 05:56:13;;;;;;;9.32;7.90;;;;;;;6.70;61.97;98921.19;4973023;28;20043;-76
2023/03/10 05:58:41;;;;;;;10.98;5.93;;;;;;;6.87;61.43;98928.81;4957220;28;20056;-75
2023/03/10 06:01:08;;;;;;;12.68;6.72;;;;;;;7.11;61.49;98920.00;4956616;28;20050;-74
2023/03/10 06:03:34;;;;;;;20.70;12.82;;;;;;;7.59;61.09;98920.03;4972668;28;20097;-75
2023/03/10 06:06:01;;;;;;;9.45;6.00;;;;;;;7.74;59.07;98909.09;4974121;28;20121;-76
2023/03/10 06:08:28;;;;;;;8.70;6.97;;;;;;;7.67;59.16;98920.31;4972593;28;20182;-76
2023/03/10 06:10:54;;;;;;;9.60;6.25;;;;;;;7.53;59.07;98922.19;4956617;28;20046;-78
2023/03/10 06:13:20;;;;;;;13.32;7.88;;;;;;;7.30;59.38;98931.03;4988831;28;20502;-75
2023/03/10 06:15:55;;;;;;;11.27;6.82;;;;;;;7.15;59.86;98921.53;4973752;28;20049;-76
2023/03/10 06:18:21;;;;;;;12.77;6.70;;;;;;;7.06;60.30;98912.38;4956375;28;20050;-75
2023/03/10 06:20:47;;;;;;;10.10;6.07;;;;;;;6.89;60.64;98910.97;4956078;28;20395;-78
2023/03/10 06:23:14;;;;;;;8.80;6.03;;;;;;;6.86;61.02;98907.66;4988401;28;20490;-75
2023/03/10 06:25:40;;;;;;;9.15;6.35;;;;;;;6.79;61.25;98909.91;4956617;28;20141;-74
2023/03/10 06:28:06;;;;;;;9.90;6.50;;;;;;;6.94;61.18;98910.63;4956372;28;20133;-75
2023/03/10 06:30:32;;;;;;;12.23;6.47;;;;;;;6.82;61.15;98907.88;4973608;28;20094;-75
2023/03/10 06:32:59;;;;;;;14.73;7.03;;;;;;;6.98;61.02;98906.78;4972421;28;20050;-75
2023/03/10 06:35:28;;;;;;;7.80;6.25;;;;;;;7.25;60.91;98909.22;4988990;28;20047;-76
2023/03/10 06:37:54;;;;;;;8.83;6.77;;;;;;;7.48;59.98;98897.75;4956266;28;20039;-75
2023/03/10 06:40:20;;;;;;;9.35;6.40;;;;;;;7.66;59.84;98906.16;4972299;28;20341;-76
2023/03/10 06:42:46;;;;;;;10.18;6.47;;;;;;;7.51;58.97;98907.31;4956066;28;20046;-76
2023/03/10 06:45:15;;;;;;;8.52;6.15;;;;;;;7.59;59.25;98909.41;4973470;28;20046;-76
2023/03/10 06:47:41;;;;;;;8.93;5.97;;;;;;;7.65;59.12;98903.63;4973513;28;20564;-76
2023/03/10 06:50:09;;;;;;;10.88;7.13;;;;;;;7.44;59.31;98896.28;4972211;28;20050;-76
2023/03/10 06:52:35;;;;;;;11.45;7.15;;;;;;;7.82;59.07;98889.88;4959287;28;20508;-77
2023/03/10 06:55:01;;;;;;;11.07;6.53;;;;;;;8.08;58.43;98889.72;4975764;28;20060;-75
2023/03/10 06:57:28;;;;;;;13.52;6.75;;;;;;;7.95;57.99;98890.66;4976986;28;20039;-75
2023/03/10 06:59:54;;;;;;;12.88;6.72;;;;;;;8.16;57.96;98901.50;4991917;28;20053;-77
2023/03/10 07:02:20;;;;;;;12.48;6.85;;;;;;;8.44;57.29;98886.88;4977102;28;20155;-75
2023/03/10 07:04:46;;;;;;;11.43;5.90;;;;;;;8.57;56.73;98894.75;4959557;28;20145;-73
2023/03/10 07:07:14;;;;;;;9.60;6.03;;;;;;;8.65;56.31;98894.16;4979381;28;20043;-76
2023/03/10 07:09:40;;;;;;;11.40;6.95;;;;;;;8.43;56.75;98887.88;4976815;28;20038;-76
2023/03/10 07:12:06;;;;;;;11.93;6.80;;;;;;;8.41;57.05;98887.13;4978372;28;20070;-75
2023/03/10 07:14:32;;;;;;;11.32;6.68;;;;;;;8.65;56.91;98895.03;4976652;28;20078;-76
2023/03/10 07:16:58;;;;;;;9.05;6.13;;;;;;;8.97;55.36;98881.75;4975562;28;20046;-75
2023/03/10 07:19:23;;;;;;;12.77;6.28;;;;;;;8.94;55.24;98886.50;4975350;28;20058;-76
2023/03/10 07:21:49;;;;;;;8.98;6.20;;;;;;;8.91;55.36;98884.94;4975423;28;20046;-77
2023/03/10 07:24:16;;;;;;;11.65;6.63;;;;;;;8.91;55.16;98887.63;4975118;28;20058;-76
2023/03/10 07:26:42;;;;;;;11.75;6.25;;;;;;;8.89;55.46;98884.22;4959054;28;20038;-75
2023/03/10 07:29:07;;;;;;;9.90;6.25;;;;;;;8.88;54.64;98874.53;4975103;28;20497;-77
2023/03/10 07:31:35;;;;;;;10.15;5.93;;;;;;;9.03;54.58;98876.91;4976249;28;20527;-77
2023/03/10 07:34:01;;;;;;;8.05;5.45;;;;;;;9.11;54.53;98869.16;4976626;28;20038;-76
2023/03/10 07:36:28;;;;;;;14.77;6.38;;;;;;;9.12;54.35;98877.00;4974827;28;20565;-76
2023/03/10 07:38:54;;;;;;;9.48;5.90;;;;;;;9.28;54.15;98871.25;4974831;28;20080;-76
2023/03/10 07:41:21;;;;;;;8.15;6.05;;;;;;;9.13;53.95;98872.53;4974913;28;20043;-76
2023/03/10 07:43:51;;;;;;;7.22;5.93;;;;;;;9.40;53.92;98867.59;4974703;28;20133;-77
2023/03/10 07:46:17;;;;;;;11.95;6.53;;;;;;;9.50;52.85;98867.66;4958512;28;20051;-74
2023/03/10 07:48:43;;;;;;;32.95;7.88;;;;;;;9.49;53.38;98874.84;4974543;28;20490;-76
2023/03/10 07:51:09;;;;;;;27.30;6.82;;;;;;;9.26;53.49;98873.22;4974885;28;20039;-75
2023/03/10 07:53:35;;;;;;;8.40;5.88;;;;;;;8.89;54.05;98865.53;4974700;28;20414;-75
2023/03/10 07:56:06;;;;;;;12.15;6.53;;;;;;;8.86;54.24;98870.28;4958280;28;20038;-75
2023/03/10 07:58:33;;;;;;;8.50;6.55;;;;;;;9.00;54.15;98857.53;4974732;28;20047;-77
2023/03/10 08:00:59;;;;;;;10.25;6.60;;;;;;;9.02;53.91;98859.22;4976125;28;20051;-76
2023/03/10 08:03:26;;;;;;;13.32;6.95;;;;;;;8.81;54.38;98864.47;4974860;28;20043;-77
2023/03/10 08:05:53;;;;;;;10.32;6.00;;;;;;;8.68;54.70;98856.59;4990960;28;20497;-75
2023/03/10 08:08:19;;;;;;;10.00;6.30;;;;;;;8.47;55.16;98859.19;4974646;28;20051;-77
2023/03/10 08:10:45;;;;;;;12.60;6.45;;;;;;;8.55;55.38;98864.75;4974230;28;20133;-79
2023/03/10 08:13:12;;;;;;;14.18;6.68;;;;;;;8.59;55.11;98852.03;4974749;28;20477;-76
2023/03/10 08:15:38;;;;;;;11.90;6.28;;;;;;;8.70;55.35;98855.53;4974106;28;20069;-76
2023/03/10 08:18:06;;;;;;;14.38;6.13;;;;;;;8.55;54.99;98845.25;4958341;28;20149;-78
2023/03/10 08:20:34;;;;;;;13.77;6.75;;;;;;;8.42;55.31;98846.19;4975457;28;20418;-75
2023/03/10 08:23:00;;;;;;;11.40;6.60;;;;;;;8.41;55.35;98844.50;4975076;28;20387;-77
2023/03/10 08:25:26;;;;;;;19.48;7.03;;;;;;;8.02;56.54;98841.31;4990071;28;20035;-75
2023/03/10 08:27:52;;;;;;;13.80;8.10;;;;;;;8.15;56.84;98835.03;4975017;28;20042;-77
2023/03/10 08:30:18;;;;;;;13.25;7.10;;;;;;;8.19;56.52;98825.84;4975342;28;20061;-77
2023/03/10 08:32:44;;;;;;;16.55;6.90;;;;;;;8.23;56.63;98824.63;4975185;28;20126;-75
2023/03/10 08:35:10;;;;;;;16.42;8.05;;;;;;;8.45;56.57;98824.66;4974015;28;20042;-76
2023/03/10 08:37:38;;;;;;;18.48;8.13;;;;;;;8.51;55.89;98829.50;4989786;28;20051;-76
2023/03/10 08:40:06;;;;;;;10.10;7.45;;;;;;;8.91;55.65;98831.63;4973672;28;20101;-77
2023/03/10 08:42:35;;;;;;;16.20;8.88;;;;;;;9.14;55.11;98828.88;4973636;28;20042;-76
2023/03/10 08:45:02;;;;;;;14.77;8.25;;;;;;;9.29;54.35;98822.31;4989810;28;20038;-76
2023/03/10 08:47:29;;;;;;;13.35;8.52;;;;;;;9.17;54.37;98812.63;4974844;28;20047;-76
2023/03/10 08:49:55;;;;;;;20.80;8.88;;;;;;;9.21;54.40;98811.41;4973696;28;20042;-77
2023/03/10 08:52:20;;;;;;;13.88;8.48;;;;;;;9.12;54.97;98806.84;4973646;28;20053;-76
2023/03/10 08:54:46;;;;;;;23.77;9.52;;;;;;;9.22;54.75;98799.78;4973634;28;20196;-76
2023/03/10 08:57:12;;;;;;;17.38;8.85;;;;;;;9.52;53.95;98791.03;4957893;28;20038;-76
2023/03/10 08:59:38;;;;;;;27.50;9.93;;;;;;;9.67;54.08;98783.56;4974214;28;20051;-75
2023/03/10 09:02:04;;;;;;;17.65;9.40;;;;;;;9.86;53.67;98782.81;4974574;28;20347;-76
2023/03/10 09:04:29;;;;;;;17.38;8.73;;;;;;;10.37;52.89;98787.28;4989657;28;20074;-76
2023/03/10 09:06:55;;;;;;;16.83;8.93;;;;;;;10.49;51.65;98774.66;4957339;28;20069;-76
2023/03/10 09:09:21;;;;;;;21.23;8.95;;;;;;;10.72;52.03;98777.97;4973272;28;20155;-75
2023/03/10 09:11:47;;;;;;;17.85;8.55;;;;;;;10.77;51.07;98776.59;4973098;28;20414;-76
2023/03/10 09:14:15;;;;;;;21.05;8.70;;;;;;;10.55;51.41;98782.16;4972894;28;20042;-76
2023/03/10 09:16:41;;;;;;;11.15;7.82;;;;;;;10.41;51.53;98784.22;4972995;28;20105;-76
2023/03/10 09:19:06;;;;;;;30.48;9.48;;;;;;;10.08;51.80;98774.66;4974277;28;20051;-77
2023/03/10 09:21:33;;;;;;;13.63;8.85;;;;;;;9.88;52.59;98768.34;4973596;28;20055;-76
2023/03/10 09:24:00;;;;;;;13.57;8.60;;;;;;;9.68;52.95;98763.88;4972638;28;20057;-76
2023/03/10 09:26:26;;;;;;;13.30;6.47;;;;;;;9.88;52.68;98762.16;4956901;28;20039;-76
2023/03/10 09:28:52;;;;;;;9.70;6.60;;;;;;;9.95;52.86;98757.97;4957246;28;20047;-77
2023/03/10 09:31:21;;;;;;;10.18;6.40;;;;;;;9.98;52.80;98757.72;4972665;28;20050;-76
2023/03/10 09:33:47;;;;;;;8.77;6.30;;;;;;;10.15;52.25;98753.56;4956871;28;20068;-78
2023/03/10 09:36:13;;;;;;;16.77;6.25;;;;;;;9.80;52.83;98744.13;4972501;28;20043;-75
2023/03/10 09:38:40;;;;;;;12.25;5.75;;;;;;;9.72;52.85;98739.47;4956460;28;20047;-77
2023/03/10 09:41:12;;;;;;;12.80;5.93;;;;;;;9.78;52.87;98731.88;4956829;28;20046;-76
2023/03/10 09:43:44;;;;;;;8.98;5.47;;;;;;;9.81;52.90;98729.81;4956620;28;20070;-75
2023/03/10 09:46:24;;;;;;;11.00;5.80;;;;;;;9.85;53.03;98715.22;4956623;28;20041;-74
2023/03/10 09:49:15;;;;;;;12.95;6.35;;;;;;;9.86;53.05;98722.25;4988617;28;20043;-76
2023/03/10 09:51:46;;;;;;;11.70;6.93;;;;;;;9.56;53.04;98714.25;4972497;28;20057;-75
2023/03/10 09:54:55;;;;;;;17.63;6.22;;;;;;;9.54;53.65;98706.34;4972650;28;20047;-76
2023/03/10 09:57:22;;;;;;;16.10;6.65;;;;;;;9.46;53.67;98712.34;4949584;28;20054;-75
2023/03/10 09:59:52;;;;;;;11.65;6.72;;;;;;;9.34;53.84;98697.41;4956611;28;20469;-75
2023/03/10 10:02:23;;;;;;;11.60;7.25;;;;;;;9.11;54.55;98714.50;4956564;28;20047;-76
2023/03/10 10:04:54;;;;;;;19.65;6.82;;;;;;;9.07;54.76;98707.75;4956458;28;20047;-76
2023/03/10 10:07:23;;;;;;;17.48;6.40;;;;;;;9.07;55.25;98705.06;4940741;28;20043;-76
2023/03/10 10:09:55;;;;;;;16.75;6.72;;;;;;;8.84;55.01;98702.50;4956562;28;20051;-74
2023/03/10 10:12:24;;;;;;;17.10;5.72;;;;;;;8.76;55.60;98715.59;4956806;28;20045;-76
2023/03/10 10:15:12;;;;;;;11.57;6.07;;;;;;;8.61;55.94;98691.06;4988725;28;20418;-76
2023/03/10 10:18:03;;;;;;;8.20;5.85;;;;;;;8.67;56.24;98700.38;4956386;28;20058;-75
2023/03/10 10:20:37;;;;;;;8.93;5.53;;;;;;;8.62;55.98;98699.94;4973771;28;20063;-76
2023/03/10 10:23:12;;;;;;;11.63;5.90;;;;;;;8.97;55.25;98697.00;4956134;28;20062;-77
2023/03/10 10:25:38;;;;;;;11.35;6.35;;;;;;;9.20;54.79;98692.38;4972840;28;20051;-74
2023/03/10 10:28:12;;;;;;;18.88;6.30;;;;;;;9.14;54.80;98700.88;4977400;28;20402;-77
2023/03/10 10:30:40;;;;;;;13.30;6.38;;;;;;;8.90;55.56;98695.81;4960178;28;20053;-76
2023/03/10 10:33:07;;;;;;;14.38;6.78;;;;;;;8.89;55.48;98689.63;4992760;28;20052;-77
2023/03/10 10:35:38;;;;;;;14.18;6.60;;;;;;;8.93;55.00;98691.06;4975989;28;20486;-76
2023/03/10 10:38:12;;;;;;;11.70;6.30;;;;;;;8.94;54.89;98691.91;4992225;28;20054;-76
2023/03/10 10:41:02;;;;;;;11.73;5.95;;;;;;;8.79;55.70;98688.69;4975982;28;20382;-76
2023/03/10 10:43:28;;;;;;;29.00;6.60;;;;;;;8.98;55.28;98691.50;4959949;28;20046;-77
2023/03/10 10:46:04;;;;;;;14.43;5.32;;;;;;;9.29;54.64;98672.06;4975831;28;20078;-77
2023/03/10 10:48:42;;;;;;;8.80;5.10;;;;;;;9.02;54.59;98699.25;4959957;28;20485;-77
2023/03/10 10:51:33;;;;;;;9.65;5.25;;;;;;;8.94;54.71;98692.75;4959702;28;20053;-76
2023/03/10 10:54:03;;;;;;;14.25;5.70;;;;;;;8.85;55.45;98692.69;4976076;28;20094;-75
2023/03/10 10:56:29;;;;;;;10.43;5.57;;;;;;;8.84;55.47;98685.66;4975836;28;20528;-74
2023/03/10 10:59:04;;;;;;;15.95;6.38;;;;;;;8.95;55.34;98690.94;4975612;28;20185;-75
2023/03/10 11:01:51;;;;;;;10.13;5.32;;;;;;;9.58;54.33;98690.94;4975614;28;20154;-76
2023/03/10 11:04:17;;;;;;;12.30;5.65;;;;;;;9.91;52.80;98688.00;4959497;28;20046;-76
2023/03/10 11:06:43;;;;;;;15.48;5.57;;;;;;;10.06;52.15;98695.63;4976028;28;20043;-76
2023/03/10 11:09:18;;;;;;;12.07;5.20;;;;;;;9.83;52.44;98677.16;4976950;28;20085;-75
2023/03/10 11:11:53;;;;;;;11.10;6.03;;;;;;;9.67;52.85;98680.31;4975616;28;20057;-78
2023/03/10 11:14:40;;;;;;;8.73;5.20;;;;;;;9.52;53.10;98680.81;4959234;28;20089;-75
2023/03/10 11:17:38;;;;;;;13.43;6.07;;;;;;;9.46;53.47;98688.34;4975656;28;20054;-76
2023/03/10 11:20:25;;;;;;;17.75;6.30;;;;;;;9.53;53.63;98674.47;4974868;28;20486;-76
2023/03/10 11:23:16;;;;;;;22.42;6.03;;;;;;;9.83;52.45;98666.47;4975366;28;20078;-77
2023/03/10 11:25:51;;;;;;;18.60;5.95;;;;;;;9.70;52.42;98665.84;4990990;28;20050;-76
2023/03/10 11:28:46;;;;;;;13.50;5.55;;;;;;;9.46;52.69;98667.00;4959158;28;20118;-76
2023/03/10 11:31:38;;;;;;;14.77;5.72;;;;;;;9.49;52.86;98660.56;4979041;28;20042;-77
2023/03/10 11:34:24;;;;;;;8.88;5.63;;;;;;;9.38;53.16;98658.81;4955577;29;20530;-78
2023/03/10 11:36:59;;;;;;;17.40;5.78;;;;;;;9.37;53.39;98657.13;4955000;28;20043;-75
2023/03/10 11:39:34;;;;;;;23.00;5.40;;;;;;;9.46;52.87;98667.00;4954110;28;20058;-76
2023/03/10 11:42:32;;;;;;;24.85;6.10;;;;;;;9.31;53.42;98657.66;4955941;28;20051;-76
2023/03/10 11:45:20;;;;;;;14.05;5.50;;;;;;;9.12;53.92;98662.88;4955610;29;20051;-76